Time;durP1;ratioP1;P1;durP2;ratioP2;P2;SDS_P1;SDS_P2;PMS_P1;PMS_P2;Temp;Humidity;BMP_temperature;BMP_pressure;BME280_temperature;BME280_humidity;BME280_pressure;Samples;Min_cycle;Max_cycle;Signal;HPM_P1;HPM_P2
2023/12/06 00:00:15;;;;;;;28.98;25.70;;;;;;;3.41;89.84;97483.84;4936652;28;20042;-71
2023/12/06 00:02:40;;;;;;;30.83;24.60;;;;;;;3.41;90.31;97483.84;4969096;28;20046;-71
2023/12/06 00:05:10;;;;;;;29.58;24.38;;;;;;;3.34;90.65;97480.41;4968173;28;20035;-71
2023/12/06 00:07:36;;;;;;;26.60;23.48;;;;;;;3.26;90.40;97472.72;4971358;28;20126;-71
2023/12/06 00:10:02;;;;;;;25.98;22.98;;;;;;;3.36;90.57;97489.00;4972230;28;20058;-70
2023/12/06 00:12:28;;;;;;;27.60;23.20;;;;;;;3.36;90.33;97478.38;4970632;28;20047;-71
2023/12/06 00:14:53;;;;;;;24.95;22.17;;;;;;;3.31;90.20;97481.66;4968927;28;20106;-70
2023/12/06 00:17:18;;;;;;;25.60;22.35;;;;;;;3.19;90.11;97458.63;4969395;28;20034;-72
2023/12/06 00:19:44;;;;;;;29.75;23.23;;;;;;;3.24;90.40;97464.13;4972116;28;20387;-72
2023/12/06 00:22:09;;;;;;;24.90;22.27;;;;;;;3.30;90.62;97472.06;4969846;28;20046;-72
2023/12/06 00:24:35;;;;;;;26.95;22.95;;;;;;;3.31;90.50;97473.66;4948155;28;20157;-71
2023/12/06 00:27:00;;;;;;;28.70;23.75;;;;;;;3.32;90.69;97477.16;4969565;28;20041;-71
2023/12/06 00:29:25;;;;;;;26.98;23.67;;;;;;;3.24;90.97;97480.09;4945666;28;20035;-71
2023/12/06 00:31:51;;;;;;;27.33;24.25;;;;;;;3.32;90.97;97477.16;4935019;28;20121;-71
2023/12/06 00:34:16;;;;;;;26.13;23.02;;;;;;;3.29;90.67;97485.59;4936396;28;20022;-71
2023/12/06 00:36:41;;;;;;;27.35;24.08;;;;;;;3.29;90.76;97477.59;4966941;28;20043;-71
2023/12/06 00:39:08;;;;;;;24.48;21.85;;;;;;;3.27;90.80;97480.47;4948901;28;20023;-71
2023/12/06 00:41:33;;;;;;;26.70;22.63;;;;;;;3.29;90.89;97489.03;4967603;28;20426;-71
2023/12/06 00:44:01;;;;;;;26.25;23.23;;;;;;;3.26;91.37;97483.34;4969781;28;20023;-71
2023/12/06 00:46:27;;;;;;;24.52;21.80;;;;;;;3.23;91.16;97479.28;4970656;28;20068;-71
2023/12/06 00:48:52;;;;;;;26.50;23.38;;;;;;;3.28;90.85;97486.59;4971311;28;20410;-71
2023/12/06 00:51:18;;;;;;;25.42;21.60;;;;;;;3.33;90.85;97486.78;4963398;28;20108;-71
2023/12/06 00:53:43;;;;;;;23.70;21.17;;;;;;;3.24;91.19;97485.41;4950289;28;20033;-71
2023/12/06 00:56:15;;;;;;;27.58;22.25;;;;;;;3.23;90.72;97478.44;4971270;28;20515;-71
2023/12/06 00:58:42;;;;;;;24.33;21.83;;;;;;;3.25;90.92;97495.00;4965114;28;20545;-71
2023/12/06 01:01:07;;;;;;;23.83;21.30;;;;;;;3.22;90.92;97487.47;4952609;28;20023;-71
2023/12/06 01:03:32;;;;;;;23.83;21.33;;;;;;;3.27;90.82;97495.59;4971256;28;20387;-70
2023/12/06 01:05:58;;;;;;;28.60;23.67;;;;;;;3.21;90.57;97501.78;4968315;28;20075;-71
2023/12/06 01:08:24;;;;;;;22.67;20.30;;;;;;;3.28;90.36;97502.56;4951257;28;20045;-70
2023/12/06 01:10:50;;;;;;;25.83;22.67;;;;;;;3.26;90.75;97499.31;4966054;28;20816;-70
2023/12/06 01:13:15;;;;;;;24.40;21.40;;;;;;;3.21;90.33;97501.78;4966759;28;20073;-70
2023/12/06 01:15:41;;;;;;;25.00;21.17;;;;;;;3.16;90.72;97501.63;4967833;28;20030;-70
2023/12/06 01:18:06;;;;;;;22.70;20.30;;;;;;;3.16;90.70;97509.59;4968111;28;20131;-72
2023/12/06 01:20:33;;;;;;;25.27;22.13;;;;;;;3.21;90.81;97512.44;4958216;28;20090;-72
2023/12/06 01:22:58;;;;;;;25.00;21.80;;;;;;;3.20;90.53;97510.78;4972484;28;20050;-72
2023/12/06 01:25:23;;;;;;;25.33;20.92;;;;;;;3.13;90.65;97507.34;4957125;28;20069;-72
2023/12/06 01:27:49;;;;;;;26.08;21.80;;;;;;;3.12;90.53;97513.72;4971107;28;20039;-72
2023/12/06 01:30:14;;;;;;;23.42;21.02;;;;;;;3.07;90.66;97518.88;4966149;28;20054;-71
2023/12/06 01:32:40;;;;;;;26.13;23.02;;;;;;;3.05;90.87;97512.94;4975556;28;20506;-71
2023/12/06 01:35:07;;;;;;;24.00;21.38;;;;;;;3.00;90.70;97515.44;4972831;28;20376;-72
2023/12/06 01:37:32;;;;;;;22.88;20.02;;;;;;;3.00;90.84;97515.44;4949989;28;20039;-72
2023/12/06 01:39:57;;;;;;;23.35;20.90;;;;;;;3.03;90.54;97526.47;4972791;28;20029;-73
2023/12/06 01:42:23;;;;;;;25.85;21.77;;;;;;;2.98;90.53;97522.81;4955610;28;20110;-73
2023/12/06 01:44:48;;;;;;;25.17;21.08;;;;;;;2.98;90.52;97517.50;4972462;28;20123;-72
2023/12/06 01:47:16;;;;;;;24.23;21.52;;;;;;;2.96;90.70;97531.00;4970018;28;20046;-72
2023/12/06 01:49:42;;;;;;;23.98;20.73;;;;;;;2.89;90.14;97518.78;4968742;28;20058;-72
2023/12/06 01:52:07;;;;;;;24.05;20.48;;;;;;;2.93;90.47;97522.63;4935316;28;20120;-73
2023/12/06 01:54:32;;;;;;;24.63;21.35;;;;;;;2.95;90.06;97524.03;4975490;28;20459;-72
2023/12/06 01:56:58;;;;;;;25.10;21.40;;;;;;;2.91;89.93;97525.50;4971653;28;20043;-71
2023/12/06 01:59:25;;;;;;;27.00;23.08;;;;;;;2.94;90.44;97532.25;4972347;28;20046;-71
2023/12/06 02:01:50;;;;;;;21.95;19.65;;;;;;;2.89;90.25;97529.41;4974606;28;20097;-71
2023/12/06 02:04:16;;;;;;;23.10;20.20;;;;;;;2.82;90.50;97532.09;4955813;28;20038;-71
2023/12/06 02:06:41;;;;;;;22.38;20.02;;;;;;;2.88;90.14;97533.06;4973705;28;20475;-71
2023/12/06 02:09:08;;;;;;;26.80;22.15;;;;;;;2.94;90.27;97532.25;4971796;28;20567;-71
2023/12/06 02:11:34;;;;;;;25.83;22.35;;;;;;;2.88;90.41;97522.44;4934048;28;20114;-71
2023/12/06 02:13:59;;;;;;;26.05;22.38;;;;;;;2.90;90.15;97531.03;4955577;28;20023;-70
2023/12/06 02:16:25;;;;;;;24.13;20.95;;;;;;;2.91;90.34;97535.31;4955204;28;20138;-72
2023/12/06 02:18:50;;;;;;;26.98;23.48;;;;;;;2.92;90.60;97536.97;4955276;28;20035;-72
2023/12/06 02:21:16;;;;;;;23.85;21.20;;;;;;;2.96;90.47;97535.50;4952808;28;20050;-72
2023/12/06 02:23:42;;;;;;;22.58;20.23;;;;;;;2.93;90.32;97525.28;4971902;28;20035;-71
2023/12/06 02:26:07;;;;;;;24.38;20.92;;;;;;;2.89;90.49;97519.59;4933992;28;20035;-71
2023/12/06 02:28:33;;;;;;;27.10;22.27;;;;;;;2.92;89.76;97519.16;4968888;28;20022;-71
2023/12/06 02:30:58;;;;;;;25.15;22.13;;;;;;;2.96;90.54;97524.88;4972090;28;20047;-70
2023/12/06 02:33:24;;;;;;;24.85;22.15;;;;;;;2.83;90.31;97525.75;4972874;28;20073;-70
2023/12/06 02:35:56;;;;;;;23.98;21.15;;;;;;;2.87;90.24;97520.81;4978812;28;20501;-70
2023/12/06 02:38:22;;;;;;;23.33;20.80;;;;;;;2.97;90.83;97537.13;4971229;28;20054;-70
2023/12/06 02:40:49;;;;;;;26.38;23.00;;;;;;;3.01;90.38;97533.03;4969941;28;20039;-70
2023/12/06 02:43:15;;;;;;;31.80;25.67;;;;;;;2.83;91.14;97520.41;4955235;28;20491;-71
2023/12/06 02:45:41;;;;;;;29.50;23.75;;;;;;;2.91;90.78;97532.66;4968283;28;20046;-70
2023/12/06 02:48:07;;;;;;;28.02;23.33;;;;;;;2.83;90.62;97535.56;4972410;28;20042;-70
2023/12/06 02:50:32;;;;;;;27.98;23.25;;;;;;;2.84;90.31;97526.56;4956136;28;20098;-71
2023/12/06 02:52:58;;;;;;;32.13;25.33;;;;;;;2.89;90.53;97532.88;4971316;28;20170;-70
2023/12/06 02:55:23;;;;;;;27.25;23.17;;;;;;;2.91;90.77;97535.31;4955924;28;20030;-70
2023/12/06 02:57:48;;;;;;;27.52;23.65;;;;;;;2.80;90.50;97524.31;4970197;28;20039;-70
2023/12/06 03:00:14;;;;;;;27.58;24.45;;;;;;;2.88;90.13;97538.41;4968460;28;20047;-70
2023/12/06 03:02:39;;;;;;;29.45;24.15;;;;;;;2.83;90.31;97517.75;4973355;28;20723;-69
2023/12/06 03:05:05;;;;;;;34.58;25.75;;;;;;;2.86;90.68;97530.63;4973346;28;20023;-70
2023/12/06 03:07:30;;;;;;;36.83;27.40;;;;;;;2.78;90.74;97526.38;4965233;28;20383;-70
2023/12/06 03:09:56;;;;;;;26.45;23.35;;;;;;;2.82;90.12;97531.28;4957444;28;20048;-70
2023/12/06 03:12:21;;;;;;;26.10;22.70;;;;;;;2.85;90.58;97533.53;4965177;28;20053;-69
2023/12/06 03:14:46;;;;;;;26.45;23.35;;;;;;;2.84;90.43;97538.03;4973432;28;20030;-71
2023/12/06 03:17:12;;;;;;;26.55;23.30;;;;;;;2.89;89.78;97534.72;4971666;28;20495;-71
2023/12/06 03:19:37;;;;;;;24.83;21.85;;;;;;;2.87;89.65;97536.78;4972172;28;20050;-72
2023/12/06 03:22:03;;;;;;;26.10;22.55;;;;;;;2.89;90.15;97546.19;4970125;28;20407;-71
2023/12/06 03:24:28;;;;;;;24.08;21.52;;;;;;;2.85;90.42;97528.22;4964518;28;20196;-72
2023/12/06 03:26:53;;;;;;;30.70;25.13;;;;;;;2.79;89.60;97530.69;4954868;28;20126;-71
2023/12/06 03:29:19;;;;;;;32.05;25.30;;;;;;;2.84;89.55;97550.50;4969508;28;20023;-71
2023/12/06 03:31:44;;;;;;;28.02;22.90;;;;;;;2.71;90.24;97533.56;4968536;28;20136;-71
2023/12/06 03:34:09;;;;;;;27.38;23.60;;;;;;;2.79;89.97;97540.50;4967650;28;20082;-72
2023/12/06 03:36:35;;;;;;;26.17;23.05;;;;;;;2.77;89.46;97532.75;4975455;28;20054;-71
2023/12/06 03:39:00;;;;;;;31.95;23.30;;;;;;;2.77;89.99;97548.69;4966859;28;20074;-71
2023/12/06 03:41:26;;;;;;;25.90;22.38;;;;;;;2.68;89.96;97533.19;4956755;28;20045;-71
2023/12/06 03:43:51;;;;;;;28.52;23.63;;;;;;;2.70;90.23;97541.75;4953154;28;20022;-70
2023/12/06 03:46:16;;;;;;;36.58;28.17;;;;;;;2.70;90.26;97555.88;4966339;28;20035;-71
2023/12/06 03:48:42;;;;;;;30.40;25.40;;;;;;;2.61;89.84;97538.50;4951118;28;20407;-70
2023/12/06 03:51:07;;;;;;;29.85;25.13;;;;;;;2.70;89.83;97547.91;4965083;28;20049;-71
2023/12/06 03:53:33;;;;;;;35.08;26.88;;;;;;;2.53;89.71;97525.47;4971992;28;20491;-72
2023/12/06 03:55:58;;;;;;;28.35;23.17;;;;;;;2.70;89.92;97547.91;4956490;28;20471;-71
2023/12/06 03:58:23;;;;;;;42.50;30.80;;;;;;;2.56;90.00;97529.53;4914337;28;20073;-70
2023/12/06 04:00:49;;;;;;;39.42;29.80;;;;;;;2.68;90.11;97551.78;4974681;28;20133;-70
2023/12/06 04:03:14;;;;;;;34.83;26.63;;;;;;;2.60;89.39;97536.88;4956097;28;20081;-70
2023/12/06 04:05:43;;;;;;;34.63;26.75;;;;;;;2.68;89.36;97557.91;4971433;28;20045;-70
2023/12/06 04:08:10;;;;;;;30.58;24.55;;;;;;;2.64;89.57;97558.53;4967213;28;20030;-69
2023/12/06 04:10:35;;;;;;;43.10;30.67;;;;;;;2.63;89.61;97563.06;4967932;28;20113;-70
2023/12/06 04:13:00;;;;;;;50.08;31.98;;;;;;;2.63;89.75;97552.44;4966261;28;20106;-70
2023/12/06 04:15:26;;;;;;;36.63;28.50;;;;;;;2.58;89.66;97559.38;4971782;28;20392;-70
2023/12/06 04:17:51;;;;;;;44.38;30.73;;;;;;;2.49;89.99;97550.00;4969610;28;20030;-70
2023/12/06 04:20:17;;;;;;;40.63;28.55;;;;;;;2.52;89.69;97550.38;4966053;28;20042;-73
2023/12/06 04:22:43;;;;;;;38.92;27.83;;;;;;;2.53;89.13;97541.41;4971612;28;20463;-70
2023/12/06 04:25:08;;;;;;;39.90;27.75;;;;;;;2.53;89.50;97552.03;4971456;28;20097;-69
2023/12/06 04:27:34;;;;;;;32.33;26.52;;;;;;;2.59;89.53;97561.81;4969963;28;20018;-69
2023/12/06 04:29:59;;;;;;;34.15;26.48;;;;;;;2.56;89.35;97556.13;4972745;28;20081;-70
2023/12/06 04:32:25;;;;;;;35.35;26.45;;;;;;;2.60;89.69;97563.47;4946940;28;20506;-69
2023/12/06 04:34:55;;;;;;;42.03;28.13;;;;;;;2.60;89.44;97570.63;4971619;28;20042;-69
2023/12/06 04:37:20;;;;;;;42.65;29.55;;;;;;;2.51;89.15;97564.72;4932216;29;20415;-69
2023/12/06 04:39:46;;;;;;;46.33;30.83;;;;;;;2.52;89.37;97563.69;4969745;28;20027;-69
2023/12/06 04:42:11;;;;;;;46.47;31.85;;;;;;;2.50;89.19;97564.91;4967988;28;20043;-69
2023/12/06 04:44:37;;;;;;;44.17;30.60;;;;;;;2.59;89.80;97583.09;4954837;28;20054;-69
2023/12/06 04:47:02;;;;;;;32.10;25.50;;;;;;;2.59;89.47;97577.75;4948080;28;20031;-69
2023/12/06 04:49:28;;;;;;;40.67;28.73;;;;;;;2.61;89.60;97580.22;4970376;28;20412;-69
2023/12/06 04:51:53;;;;;;;44.53;31.55;;;;;;;2.58;89.17;97581.47;4930181;28;20061;-69
2023/12/06 04:54:18;;;;;;;43.03;30.50;;;;;;;2.60;89.89;97581.25;4972251;28;20031;-69
2023/12/06 04:56:44;;;;;;;44.03;30.67;;;;;;;2.62;89.86;97576.53;4971491;28;20495;-69
2023/12/06 04:59:09;;;;;;;39.13;29.30;;;;;;;2.49;90.13;97587.22;4965563;28;20076;-71
2023/12/06 05:01:34;;;;;;;41.22;28.63;;;;;;;2.50;90.09;97594.97;4952732;28;20054;-70
2023/12/06 05:04:00;;;;;;;36.42;26.58;;;;;;;2.54;90.00;97592.72;4964798;28;20038;-69
2023/12/06 05:06:25;;;;;;;33.75;25.65;;;;;;;2.54;90.26;97580.25;4955480;28;20514;-70
2023/12/06 05:08:50;;;;;;;38.30;26.90;;;;;;;2.54;89.19;97590.06;4972140;28;20018;-70
2023/12/06 05:11:16;;;;;;;38.97;27.33;;;;;;;2.49;89.45;97582.72;4971487;28;20499;-70
2023/12/06 05:13:41;;;;;;;30.40;25.25;;;;;;;2.54;89.72;97590.06;4971200;28;20129;-70
2023/12/06 05:16:07;;;;;;;35.45;26.88;;;;;;;2.62;90.00;97603.94;4961722;28;20102;-71
2023/12/06 05:18:32;;;;;;;34.38;25.77;;;;;;;2.47;89.83;97576.81;4950047;28;20033;-70
2023/12/06 05:20:57;;;;;;;36.75;27.38;;;;;;;2.53;90.05;97589.25;4971396;28;20046;-71
2023/12/06 05:23:23;;;;;;;40.63;27.90;;;;;;;2.58;89.82;97588.63;4968351;28;20027;-71
2023/12/06 05:25:49;;;;;;;42.10;30.77;;;;;;;2.66;89.75;97604.34;4955277;28;20062;-71
2023/12/06 05:28:14;;;;;;;39.33;27.95;;;;;;;2.62;89.68;97609.25;4967489;28;20512;-71
2023/12/06 05:30:39;;;;;;;35.28;26.73;;;;;;;2.64;89.66;97596.56;4972592;28;20039;-70
2023/12/06 05:33:07;;;;;;;31.98;26.25;;;;;;;2.64;90.17;97596.56;4971110;28;20027;-70
2023/12/06 05:35:33;;;;;;;45.70;30.83;;;;;;;2.60;90.40;97600.69;4966574;28;20035;-70
2023/12/06 05:37:58;;;;;;;34.85;26.75;;;;;;;2.61;90.61;97606.81;4954758;28;20031;-70
2023/12/06 05:40:23;;;;;;;36.70;28.60;;;;;;;2.56;90.27;97591.50;4971082;28;20505;-70
2023/12/06 05:42:49;;;;;;;43.72;30.02;;;;;;;2.64;89.85;97598.41;4971861;28;20133;-70
2023/12/06 05:45:15;;;;;;;37.10;27.83;;;;;;;2.65;90.21;97600.03;4968621;28;20506;-70
2023/12/06 05:47:40;;;;;;;36.53;26.35;;;;;;;2.65;89.81;97603.53;4952903;28;20098;-70
2023/12/06 05:50:06;;;;;;;43.17;28.90;;;;;;;2.66;90.67;97599.81;4944448;29;20395;-70
2023/12/06 05:52:32;;;;;;;40.85;29.98;;;;;;;2.67;90.44;97608.63;4950336;28;20442;-70
2023/12/06 05:54:59;;;;;;;40.20;29.83;;;;;;;2.59;90.32;97591.06;4950342;28;20039;-70
2023/12/06 05:57:25;;;;;;;41.22;31.58;;;;;;;2.55;90.48;97594.34;4970536;28;20034;-70
2023/12/06 05:59:50;;;;;;;48.42;32.05;;;;;;;2.57;90.38;97594.94;4971027;28;20113;-70
2023/12/06 06:02:15;;;;;;;51.65;35.42;;;;;;;2.61;90.42;97612.13;4974107;28;20065;-72
2023/12/06 06:04:41;;;;;;;37.85;29.50;;;;;;;2.65;90.71;97614.16;4965011;28;20072;-71
2023/12/06 06:07:06;;;;;;;36.78;28.33;;;;;;;2.69;90.11;97610.03;4980137;28;20070;-71
2023/12/06 06:09:32;;;;;;;40.75;30.85;;;;;;;2.62;90.69;97609.25;4970349;28;20035;-71
2023/12/06 06:11:57;;;;;;;45.42;31.38;;;;;;;2.56;90.44;97599.47;4942327;28;20074;-72
2023/12/06 06:14:22;;;;;;;39.03;29.98;;;;;;;2.67;90.57;97621.91;4967802;28;20054;-72
2023/12/06 06:16:48;;;;;;;34.83;26.92;;;;;;;2.65;90.23;97602.69;4957505;28;20570;-72
2023/12/06 06:19:14;;;;;;;47.67;34.00;;;;;;;2.72;90.91;97619.44;4974218;28;20066;-73
2023/12/06 06:21:40;;;;;;;36.55;29.73;;;;;;;2.79;90.71;97625.56;4956770;28;20118;-72
2023/12/06 06:24:05;;;;;;;64.20;47.65;;;;;;;2.78;90.16;97624.75;4974329;28;20129;-72
2023/12/06 06:26:30;;;;;;;46.67;33.42;;;;;;;2.74;90.85;97618.22;4972964;28;20103;-71
2023/12/06 06:28:56;;;;;;;70.82;45.85;;;;;;;2.75;90.83;97625.16;4973686;28;20043;-72
2023/12/06 06:31:21;;;;;;;68.65;45.85;;;;;;;2.68;90.46;97613.72;4975906;28;20035;-72
2023/12/06 06:33:47;;;;;;;74.60;50.30;;;;;;;2.64;90.36;97606.38;4966839;28;20050;-71
2023/12/06 06:36:12;;;;;;;50.22;37.28;;;;;;;2.82;90.23;97629.66;4970494;28;20022;-71
2023/12/06 06:38:37;;;;;;;60.55;41.33;;;;;;;2.73;90.86;97616.56;4981859;28;20704;-71
2023/12/06 06:41:03;;;;;;;56.42;41.75;;;;;;;2.72;91.09;97622.94;4969326;28;20029;-71
2023/12/06 06:43:29;;;;;;;48.70;39.67;;;;;;;2.78;90.24;97630.06;4973709;28;20085;-72
2023/12/06 06:45:54;;;;;;;49.17;36.50;;;;;;;2.74;90.79;97620.88;4968263;28;20434;-72
2023/12/06 06:48:19;;;;;;;42.78;32.20;;;;;;;2.82;90.27;97629.66;4973459;28;20100;-71
2023/12/06 06:50:45;;;;;;;45.00;33.35;;;;;;;2.64;89.87;97598.41;4934195;28;20022;-72
2023/12/06 06:53:11;;;;;;;54.10;36.20;;;;;;;2.88;90.34;97640.25;4973658;28;20392;-72
2023/12/06 06:55:37;;;;;;;42.00;32.08;;;;;;;2.86;90.09;97642.31;4942853;28;20045;-71
2023/12/06 06:58:03;;;;;;;36.90;29.15;;;;;;;2.75;89.92;97630.47;4973351;28;20042;-72
2023/12/06 07:00:28;;;;;;;37.78;28.08;;;;;;;2.85;90.58;97645.19;4955529;28;20057;-73
2023/12/06 07:02:54;;;;;;;37.20;29.55;;;;;;;2.80;90.56;97643.16;4956992;28;20087;-72
2023/12/06 07:05:19;;;;;;;46.28;35.28;;;;;;;2.89;90.55;97662.34;4972165;28;20054;-71
2023/12/06 07:07:44;;;;;;;44.83;32.63;;;;;;;2.85;90.79;97653.97;4956808;28;20092;-71
2023/12/06 07:10:10;;;;;;;39.80;28.17;;;;;;;2.87;90.31;97659.88;4952765;28;20022;-74
2023/12/06 07:12:39;;;;;;;36.38;27.17;;;;;;;2.94;90.43;97670.53;4956357;28;20039;-73
2023/12/06 07:15:05;;;;;;;36.38;27.30;;;;;;;2.86;90.11;97652.94;4973124;28;20058;-73
2023/12/06 07:17:30;;;;;;;42.88;28.95;;;;;;;2.89;90.13;97667.66;4956696;28;20471;-71
2023/12/06 07:19:56;;;;;;;36.53;26.65;;;;;;;2.88;90.78;97671.34;4957243;28;20076;-71
2023/12/06 07:22:22;;;;;;;39.08;27.90;;;;;;;2.91;90.73;97673.59;4973153;28;20039;-71
2023/12/06 07:24:48;;;;;;;43.03;28.92;;;;;;;2.92;90.57;97661.94;4925866;28;20056;-71
2023/12/06 07:27:14;;;;;;;34.42;25.33;;;;;;;2.70;91.31;97648.91;4960222;28;20525;-72
2023/12/06 07:29:40;;;;;;;31.58;23.40;;;;;;;2.88;90.98;97681.97;4956245;28;20027;-71
2023/12/06 07:32:06;;;;;;;30.08;23.17;;;;;;;2.80;90.87;97670.53;4972631;28;20043;-72
2023/12/06 07:34:31;;;;;;;29.58;23.45;;;;;;;2.91;91.12;97684.22;4974130;28;20030;-71
2023/12/06 07:36:58;;;;;;;29.35;23.55;;;;;;;2.89;90.88;97688.94;4972337;28;20073;-73
2023/12/06 07:39:23;;;;;;;29.88;23.20;;;;;;;2.74;90.88;97658.09;4954096;28;20450;-71
2023/12/06 07:41:49;;;;;;;29.10;22.42;;;;;;;2.84;91.38;97681.59;4968180;28;20042;-72
2023/12/06 07:44:17;;;;;;;29.63;23.00;;;;;;;2.94;91.38;97694.47;4968802;28;20038;-72
2023/12/06 07:46:43;;;;;;;40.42;27.75;;;;;;;3.02;91.13;97688.91;4972625;28;20502;-72
2023/12/06 07:49:08;;;;;;;36.05;26.23;;;;;;;3.09;90.75;97689.69;4969194;28;20023;-71
2023/12/06 07:51:36;;;;;;;30.25;25.05;;;;;;;2.99;91.27;97668.06;4935721;28;20039;-71
2023/12/06 07:54:01;;;;;;;32.22;24.83;;;;;;;3.08;90.82;97672.91;4955545;28;20030;-72
2023/12/06 07:56:27;;;;;;;28.35;23.38;;;;;;;3.12;91.06;97684.78;4970964;28;20035;-72
2023/12/06 07:58:56;;;;;;;36.42;27.00;;;;;;;2.99;90.96;97660.09;4966286;28;20022;-72
2023/12/06 08:01:23;;;;;;;36.53;26.55;;;;;;;3.12;91.24;97676.00;4972592;28;20038;-71
2023/12/06 08:03:48;;;;;;;33.60;25.98;;;;;;;3.09;90.88;97673.75;4973352;28;20031;-71
2023/12/06 08:06:14;;;;;;;36.50;28.23;;;;;;;3.17;91.23;97692.13;4932835;29;20459;-72
2023/12/06 08:08:39;;;;;;;40.20;29.98;;;;;;;3.19;91.49;97676.78;4970832;28;20081;-71
2023/12/06 08:11:04;;;;;;;65.13;46.35;;;;;;;3.20;91.34;97668.56;4967615;28;20053;-71
2023/12/06 08:13:30;;;;;;;151.50;101.65;;;;;;;3.22;91.06;97689.66;4955831;28;20065;-71
2023/12/06 08:15:55;;;;;;;98.65;68.30;;;;;;;3.17;91.72;97686.81;4971468;28;20070;-72
2023/12/06 08:18:21;;;;;;;140.38;90.72;;;;;;;3.14;91.60;97677.41;4954763;28;20023;-71
2023/12/06 08:20:46;;;;;;;82.05;54.28;;;;;;;3.23;91.42;97689.44;4939463;28;20031;-71
2023/12/06 08:23:11;;;;;;;41.90;32.22;;;;;;;3.30;91.27;97697.41;4970162;28;20080;-73
2023/12/06 08:25:37;;;;;;;42.33;34.22;;;;;;;3.35;91.05;97700.25;4939092;28;20491;-70
2023/12/06 08:28:02;;;;;;;42.63;31.70;;;;;;;3.28;91.22;97688.81;4971592;28;20390;-70
2023/12/06 08:30:28;;;;;;;39.90;31.02;;;;;;;3.39;91.13;97701.47;4970705;28;20035;-71
2023/12/06 08:32:53;;;;;;;46.70;32.25;;;;;;;3.33;90.96;97692.50;4956140;28;20113;-71
2023/12/06 08:35:19;;;;;;;49.15;33.28;;;;;;;3.37;91.63;97703.50;4955653;28;20035;-71
2023/12/06 08:37:45;;;;;;;46.88;32.65;;;;;;;3.39;91.18;97696.97;4967982;28;20023;-72
2023/12/06 08:40:12;;;;;;;42.65;31.67;;;;;;;3.45;91.06;97708.63;4953126;28;20037;-71
2023/12/06 08:42:38;;;;;;;53.75;35.83;;;;;;;3.47;91.29;97709.22;4955542;28;20034;-71
2023/12/06 08:45:03;;;;;;;48.13;33.72;;;;;;;3.40;91.05;97708.44;4968721;28;20039;-70
2023/12/06 08:47:29;;;;;;;48.63;36.55;;;;;;;3.48;91.69;97721.47;4968121;28;20615;-70
2023/12/06 08:49:54;;;;;;;46.08;34.97;;;;;;;3.46;91.51;97712.88;4971491;28;20042;-70
2023/12/06 08:52:20;;;;;;;41.72;31.15;;;;;;;3.41;90.97;97712.69;4967957;28;20491;-71
2023/12/06 08:54:45;;;;;;;48.50;33.90;;;;;;;3.46;91.43;97723.53;4972514;28;20042;-71
2023/12/06 08:57:11;;;;;;;46.03;31.67;;;;;;;3.50;91.32;97724.78;4968363;28;20442;-70
2023/12/06 08:59:37;;;;;;;51.40;34.58;;;;;;;3.50;91.34;97730.88;4955254;28;20042;-71
2023/12/06 09:02:02;;;;;;;46.63;32.50;;;;;;;3.52;91.05;97733.34;4971250;28;20033;-70
2023/12/06 09:04:28;;;;;;;43.05;30.67;;;;;;;3.50;91.20;97711.47;4968928;28;20070;-70
2023/12/06 09:06:53;;;;;;;43.97;31.20;;;;;;;3.58;91.06;97718.38;4971144;28;20038;-71
2023/12/06 09:09:18;;;;;;;45.95;29.90;;;;;;;3.56;90.57;97720.44;4971233;28;20038;-71
2023/12/06 09:11:45;;;;;;;45.47;30.67;;;;;;;3.57;91.09;97725.53;4955091;28;20034;-71
2023/12/06 09:14:10;;;;;;;36.63;27.17;;;;;;;3.50;91.10;97714.91;4969768;28;20035;-70
2023/12/06 09:16:36;;;;;;;44.90;29.58;;;;;;;3.52;91.15;97722.72;4971748;28;20073;-70
2023/12/06 09:19:03;;;;;;;47.55;31.08;;;;;;;3.54;91.06;97730.47;4967354;28;20480;-71
2023/12/06 09:21:41;;;;;;;50.28;31.45;;;;;;;3.62;90.97;97727.59;4936844;28;20031;-70
2023/12/06 09:24:11;;;;;;;52.50;32.05;;;;;;;3.66;90.98;97744.75;4967902;28;20063;-70
2023/12/06 09:26:40;;;;;;;53.17;34.72;;;;;;;3.67;90.75;97741.88;4967994;28;20027;-71
2023/12/06 09:29:07;;;;;;;54.47;37.75;;;;;;;3.68;91.25;97748.03;4970928;28;20027;-70
2023/12/06 09:31:33;;;;;;;43.35;30.27;;;;;;;3.72;91.25;97743.91;4954843;28;20046;-70
2023/12/06 09:33:58;;;;;;;48.67;33.45;;;;;;;3.71;91.19;97743.09;4946655;28;20043;-71
2023/12/06 09:36:24;;;;;;;37.60;28.77;;;;;;;3.65;91.76;97741.28;4973339;28;20038;-70
2023/12/06 09:38:51;;;;;;;49.05;32.70;;;;;;;3.72;91.78;97744.72;4967873;28;20080;-70
2023/12/06 09:41:18;;;;;;;43.20;29.65;;;;;;;3.84;91.17;97755.53;4957448;28;20431;-70
2023/12/06 09:43:44;;;;;;;44.53;30.10;;;;;;;3.82;90.97;97749.59;4955828;28;20038;-70
2023/12/06 09:46:12;;;;;;;44.35;29.60;;;;;;;3.72;91.09;97736.75;4973305;28;20150;-70
2023/12/06 09:48:37;;;;;;;44.13;31.70;;;;;;;3.88;91.04;97754.88;4950405;28;20027;-70
2023/12/06 09:51:03;;;;;;;47.13;32.10;;;;;;;3.81;91.77;97748.78;4974041;28;20027;-71
2023/12/06 09:53:28;;;;;;;43.30;31.75;;;;;;;3.80;91.14;97736.50;4955142;28;20030;-71
2023/12/06 09:55:54;;;;;;;47.40;35.08;;;;;;;3.90;91.36;97744.84;4958566;28;20026;-71
2023/12/06 09:58:19;;;;;;;70.88;45.58;;;;;;;3.98;91.10;97755.25;4947226;29;20046;-71
2023/12/06 10:00:45;;;;;;;61.17;41.15;;;;;;;3.99;91.36;97750.75;4972083;28;20113;-71
2023/12/06 10:03:12;;;;;;;44.45;33.17;;;;;;;4.00;91.44;97753.19;4941165;28;20039;-71
2023/12/06 10:05:37;;;;;;;43.53;30.25;;;;;;;4.00;91.52;97749.69;4971773;28;20027;-70
2023/12/06 10:08:05;;;;;;;45.92;31.35;;;;;;;4.03;90.96;97755.44;4939598;28;20047;-70
2023/12/06 10:10:30;;;;;;;46.72;33.25;;;;;;;4.05;91.23;97750.72;4957363;28;20030;-74
2023/12/06 10:12:56;;;;;;;47.63;32.72;;;;;;;4.00;91.16;97739.88;4967410;28;20045;-71
2023/12/06 10:15:22;;;;;;;61.67;38.83;;;;;;;4.09;90.75;97754.56;4958069;28;20031;-71
2023/12/06 10:17:47;;;;;;;51.05;37.55;;;;;;;4.17;91.40;97753.50;4970118;28;20035;-70
2023/12/06 10:20:13;;;;;;;44.28;32.00;;;;;;;4.16;91.25;97762.50;4973772;28;20510;-71
2023/12/06 10:22:39;;;;;;;47.50;33.75;;;;;;;4.14;91.17;97753.94;4952117;28;20035;-71
2023/12/06 10:25:08;;;;;;;54.97;36.15;;;;;;;4.17;91.02;97754.31;4957775;28;20034;-71
2023/12/06 10:27:37;;;;;;;45.78;32.65;;;;;;;4.16;91.39;97744.69;4970129;28;20046;-70
2023/12/06 10:30:04;;;;;;;43.35;32.45;;;;;;;4.16;91.38;97750.00;4973106;28;20019;-71
2023/12/06 10:32:30;;;;;;;45.95;33.92;;;;;;;4.14;91.21;97752.09;4949037;28;20419;-70
2023/12/06 10:34:58;;;;;;;60.67;38.70;;;;;;;4.12;90.86;97740.81;4940642;28;20483;-70
2023/12/06 10:37:25;;;;;;;48.30;33.17;;;;;;;4.14;91.12;97753.94;4954485;28;20121;-70
2023/12/06 10:39:50;;;;;;;42.40;29.98;;;;;;;4.08;91.07;97744.94;4973764;28;20031;-70
2023/12/06 10:42:19;;;;;;;51.40;34.03;;;;;;;4.17;90.97;97754.31;4956769;28;20101;-71
2023/12/06 10:44:45;;;;;;;40.33;31.00;;;;;;;4.18;91.39;97750.63;4971628;28;20018;-71
2023/12/06 10:47:11;;;;;;;41.55;30.10;;;;;;;4.15;91.51;97751.03;4966664;28;20045;-71
2023/12/06 10:49:37;;;;;;;44.17;31.88;;;;;;;4.11;91.53;97747.16;4973318;28;20033;-71
2023/12/06 10:52:04;;;;;;;37.58;27.98;;;;;;;4.10;91.32;97758.88;4973723;28;20114;-71
2023/12/06 10:54:29;;;;;;;44.85;30.63;;;;;;;4.06;92.29;97740.88;4958720;28;20030;-71
2023/12/06 10:56:56;;;;;;;42.97;29.95;;;;;;;4.17;92.09;97749.00;4970204;28;20045;-71
2023/12/06 10:59:25;;;;;;;57.28;40.30;;;;;;;4.22;91.48;97751.81;4955373;28;20078;-71
2023/12/06 11:01:55;;;;;;;50.50;34.05;;;;;;;4.22;91.45;97750.19;4965740;28;20038;-70
2023/12/06 11:04:25;;;;;;;41.33;30.23;;;;;;;4.25;91.46;97749.78;4973562;28;20058;-71
2023/12/06 11:07:10;;;;;;;43.88;32.03;;;;;;;4.18;91.30;97745.28;4965681;28;20034;-71
2023/12/06 11:09:46;;;;;;;46.72;31.58;;;;;;;4.21;91.38;97749.38;4972693;28;20039;-71
2023/12/06 11:12:38;;;;;;;44.15;33.20;;;;;;;4.16;91.10;97747.34;4972178;28;20050;-71
2023/12/06 11:15:32;;;;;;;46.55;33.25;;;;;;;4.16;91.09;97738.53;4966964;28;20034;-71
2023/12/06 11:18:16;;;;;;;51.20;34.75;;;;;;;4.33;91.83;97749.50;4974428;28;20049;-71